sensor_id;sensor_type;location;lat;lon;timestamp;pressure;altitude;pressure_sealevel;temperature;humidity
31337;BME280;22846;42.654;23.314;2023-05-24T00:01:06;94341.88;;;24.55;53.43
31337;BME280;22846;42.654;23.314;2023-05-24T00:03:32;94337.63;;;24.54;53.55
31337;BME280;22846;42.654;23.314;2023-05-24T00:05:59;94338.81;;;24.53;53.75
31337;BME280;22846;42.654;23.314;2023-05-24T00:08:25;94338.81;;;24.53;53.69
31337;BME280;22846;42.654;23.314;2023-05-24T00:10:50;94333.34;;;24.53;53.87
31337;BME280;22846;42.654;23.314;2023-05-24T00:13:16;94339.59;;;24.54;53.58
31337;BME280;22846;42.654;23.314;2023-05-24T00:15:42;94338.06;;;24.53;53.86
31337;BME280;22846;42.654;23.314;2023-05-24T00:18:07;94345.06;;;24.54;53.96
31337;BME280;22846;42.654;23.314;2023-05-24T00:20:32;94338.81;;;24.53;53.99
31337;BME280;22846;42.654;23.314;2023-05-24T00:22:58;94340.81;;;24.53;53.81
31337;BME280;22846;42.654;23.314;2023-05-24T00:25:23;94332.72;;;24.49;53.89
31337;BME280;22846;42.654;23.314;2023-05-24T00:27:49;94335.75;;;24.51;53.88
31337;BME280;22846;42.654;23.314;2023-05-24T00:30:14;94337.75;;;24.51;53.87
31337;BME280;22846;42.654;23.314;2023-05-24T00:32:39;94337.28;;;24.52;53.58
31337;BME280;22846;42.654;23.314;2023-05-24T00:35:05;94337.75;;;24.51;53.96
31337;BME280;22846;42.654;23.314;2023-05-24T00:37:31;94329.09;;;24.52;53.72
31337;BME280;22846;42.654;23.314;2023-05-24T00:39:56;94338.06;;;24.53;53.70
31337;BME280;22846;42.654;23.314;2023-05-24T00:42:21;94340.03;;;24.52;53.84
31337;BME280;22846;42.654;23.314;2023-05-24T00:44:47;94329.53;;;24.51;53.72
31337;BME280;22846;42.654;23.314;2023-05-24T00:47:12;94325.75;;;24.48;53.64
31337;BME280;22846;42.654;23.314;2023-05-24T00:49:38;94332.28;;;24.51;53.66
31337;BME280;22846;42.654;23.314;2023-05-24T00:52:04;94333.47;;;24.50;53.73
31337;BME280;22846;42.654;23.314;2023-05-24T00:54:30;94328.78;;;24.50;53.75
31337;BME280;22846;42.654;23.314;2023-05-24T00:56:56;94328.78;;;24.50;53.85
31337;BME280;22846;42.654;23.314;2023-05-24T00:59:22;94330.00;;;24.49;53.97
31337;BME280;22846;42.654;23.314;2023-05-24T01:01:48;94332.72;;;24.49;53.97
31337;BME280;22846;42.654;23.314;2023-05-24T01:04:13;94333.94;;;24.48;54.10
31337;BME280;22846;42.654;23.314;2023-05-24T01:18:16;94324.34;;;24.44;54.19
31337;BME280;22846;42.654;23.314;2023-05-24T01:20:46;94333.47;;;24.50;53.79
31337;BME280;22846;42.654;23.314;2023-05-24T01:23:30;94339.06;;;24.46;54.33
31337;BME280;22846;42.654;23.314;2023-05-24T01:28:24;94343.75;;;24.46;54.32
31337;BME280;22846;42.654;23.314;2023-05-24T01:30:50;94337.53;;;24.45;54.03
31337;BME280;22846;42.654;23.314;2023-05-24T01:33:16;94345.75;;;24.45;54.17
31337;BME280;22846;42.654;23.314;2023-05-24T01:35:41;94345.75;;;24.45;54.12
31337;BME280;22846;42.654;23.314;2023-05-24T01:38:08;94349.22;;;24.46;54.27
31337;BME280;22846;42.654;23.314;2023-05-24T01:40:37;94348.47;;;24.45;54.49
31337;BME280;22846;42.654;23.314;2023-05-24T01:43:32;94347.72;;;24.45;54.12
31337;BME280;22846;42.654;23.314;2023-05-24T01:46:06;94348.47;;;24.45;54.03
31337;BME280;22846;42.654;23.314;2023-05-24T01:51:22;94341.47;;;24.44;54.16
31337;BME280;22846;42.654;23.314;2023-05-24T01:53:49;94346.19;;;24.44;54.38
31337;BME280;22846;42.654;23.314;2023-05-24T01:56:18;94338.09;;;24.40;54.02
31337;BME280;22846;42.654;23.314;2023-05-24T01:58:45;94346.19;;;24.44;54.11
31337;BME280;22846;42.654;23.314;2023-05-24T02:01:11;94344.63;;;24.43;54.42
31337;BME280;22846;42.654;23.314;2023-05-24T02:03:39;94338.53;;;24.39;54.09
31337;BME280;22846;42.654;23.314;2023-05-24T02:06:05;94334.50;;;24.43;54.33
31337;BME280;22846;42.654;23.314;2023-05-24T02:08:30;94331.84;;;24.40;54.57
31337;BME280;22846;42.654;23.314;2023-05-24T02:10:56;94334.50;;;24.43;54.42
31337;BME280;22846;42.654;23.314;2023-05-24T02:13:21;94330.66;;;24.41;54.01
31337;BME280;22846;42.654;23.314;2023-05-24T02:15:47;94327.06;;;24.44;54.41
31337;BME280;22846;42.654;23.314;2023-05-24T02:18:12;94328.25;;;24.43;54.22
31337;BME280;22846;42.654;23.314;2023-05-24T02:20:38;94328.25;;;24.43;54.42
31337;BME280;22846;42.654;23.314;2023-05-24T02:23:03;94328.25;;;24.43;54.35
31337;BME280;22846;42.654;23.314;2023-05-24T02:25:29;94334.50;;;24.43;54.44
31337;BME280;22846;42.654;23.314;2023-05-24T02:27:56;94329.03;;;24.43;54.48
31337;BME280;22846;42.654;23.314;2023-05-24T02:30:22;94319.28;;;24.42;54.47
31337;BME280;22846;42.654;23.314;2023-05-24T02:32:47;94324.75;;;24.42;54.47
31337;BME280;22846;42.654;23.314;2023-05-24T02:35:12;94327.47;;;24.42;54.50
31337;BME280;22846;42.654;23.314;2023-05-24T02:37:38;94321.25;;;24.42;54.04
31337;BME280;22846;42.654;23.314;2023-05-24T02:40:03;94322.00;;;24.42;54.17
31337;BME280;22846;42.654;23.314;2023-05-24T02:42:29;94319.28;;;24.42;54.14
31337;BME280;22846;42.654;23.314;2023-05-24T02:44:54;94319.72;;;24.41;54.40
31337;BME280;22846;42.654;23.314;2023-05-24T02:47:20;94321.25;;;24.42;54.47
31337;BME280;22846;42.654;23.314;2023-05-24T02:49:45;94332.94;;;24.42;54.32
31337;BME280;22846;42.654;23.314;2023-05-24T02:52:11;94325.94;;;24.41;54.28
31337;BME280;22846;42.654;23.314;2023-05-24T02:54:37;94324.44;;;24.40;54.59
31337;BME280;22846;42.654;23.314;2023-05-24T02:57:03;94324.44;;;24.40;54.38
31337;BME280;22846;42.654;23.314;2023-05-24T02:59:31;94326.41;;;24.40;54.50
31337;BME280;22846;42.654;23.314;2023-05-24T03:01:57;94325.78;;;24.36;54.63
31337;BME280;22846;42.654;23.314;2023-05-24T03:04:23;94335.38;;;24.40;54.53
31337;BME280;22846;42.654;23.314;2023-05-24T03:06:48;94341.25;;;24.39;54.62
31337;BME280;22846;42.654;23.314;2023-05-24T03:09:13;94343.56;;;24.40;54.32
31337;BME280;22846;42.654;23.314;2023-05-24T03:11:41;94336.56;;;24.39;54.22
31337;BME280;22846;42.654;23.314;2023-05-24T03:14:06;94329.91;;;24.40;54.47
31337;BME280;22846;42.654;23.314;2023-05-24T03:16:34;94342.03;;;24.39;54.40
31337;BME280;22846;42.654;23.314;2023-05-24T03:18:59;94342.03;;;24.39;54.26
31337;BME280;22846;42.654;23.314;2023-05-24T03:21:25;94341.25;;;24.39;54.69
31337;BME280;22846;42.654;23.314;2023-05-24T03:23:51;94336.56;;;24.39;54.50
31337;BME280;22846;42.654;23.314;2023-05-24T03:26:16;94333.06;;;24.39;54.23
31337;BME280;22846;42.654;23.314;2023-05-24T03:28:43;94348.69;;;24.38;54.63
31337;BME280;22846;42.654;23.314;2023-05-24T03:31:09;94351.44;;;24.38;54.29
31337;BME280;22846;42.654;23.314;2023-05-24T03:33:38;94356.44;;;24.40;54.55
31337;BME280;22846;42.654;23.314;2023-05-24T03:36:04;94352.97;;;24.39;54.59
31337;BME280;22846;42.654;23.314;2023-05-24T03:38:31;94361.91;;;24.40;54.61
31337;BME280;22846;42.654;23.314;2023-05-24T03:40:58;94356.88;;;24.38;54.80
31337;BME280;22846;42.654;23.314;2023-05-24T03:43:23;94365.84;;;24.39;54.57
31337;BME280;22846;42.654;23.314;2023-05-24T03:45:49;94361.91;;;24.40;54.36
31337;BME280;22846;42.654;23.314;2023-05-24T03:48:14;94365.41;;;24.40;54.44
31337;BME280;22846;42.654;23.314;2023-05-24T03:50:39;94357.97;;;24.41;54.68
31337;BME280;22846;42.654;23.314;2023-05-24T03:53:05;94350.22;;;24.39;54.73
31337;BME280;22846;42.654;23.314;2023-05-24T03:55:30;94353.84;;;24.36;54.60
31337;BME280;22846;42.654;23.314;2023-05-24T03:57:56;94361.16;;;24.39;54.24
31337;BME280;22846;42.654;23.314;2023-05-24T04:00:21;94362.69;;;24.40;54.44
31337;BME280;22846;42.654;23.314;2023-05-24T04:02:46;94364.63;;;24.40;54.40
31337;BME280;22846;42.654;23.314;2023-05-24T04:05:13;94357.97;;;24.41;54.59
31337;BME280;22846;42.654;23.314;2023-05-24T04:07:39;94364.19;;;24.41;54.60
31337;BME280;22846;42.654;23.314;2023-05-24T04:10:06;94363.44;;;24.41;54.41
31337;BME280;22846;42.654;23.314;2023-05-24T04:12:32;94362.69;;;24.40;54.49
31337;BME280;22846;42.654;23.314;2023-05-24T04:14:58;94365.72;;;24.42;54.68
31337;BME280;22846;42.654;23.314;2023-05-24T04:17:23;94363.75;;;24.43;54.30
31337;BME280;22846;42.654;23.314;2023-05-24T04:19:50;94368.78;;;24.44;54.32
31337;BME280;22846;42.654;23.314;2023-05-24T04:22:16;94361.81;;;24.43;54.47
31337;BME280;22846;42.654;23.314;2023-05-24T04:24:45;94365.72;;;24.42;54.47
31337;BME280;22846;42.654;23.314;2023-05-24T04:27:10;94370.31;;;24.45;54.34
31337;BME280;22846;42.654;23.314;2023-05-24T04:29:38;94363.34;;;24.44;54.41
31337;BME280;22846;42.654;23.314;2023-05-24T04:32:04;94364.84;;;24.45;54.32
31337;BME280;22846;42.654;23.314;2023-05-24T04:34:30;94368.78;;;24.44;54.50
31337;BME280;22846;42.654;23.314;2023-05-24T04:36:58;94363.75;;;24.43;54.50
31337;BME280;22846;42.654;23.314;2023-05-24T04:39:24;94378.06;;;24.47;54.27
31337;BME280;22846;42.654;23.314;2023-05-24T04:41:49;94379.59;;;24.48;54.74
31337;BME280;22846;42.654;23.314;2023-05-24T04:44:17;94379.38;;;24.42;54.68
31337;BME280;22846;42.654;23.314;2023-05-24T04:46:42;94393.25;;;24.48;54.65
31337;BME280;22846;42.654;23.314;2023-05-24T04:49:08;94386.59;;;24.49;54.28
31337;BME280;22846;42.654;23.314;2023-05-24T04:51:33;94398.28;;;24.49;54.57
31337;BME280;22846;42.654;23.314;2023-05-24T04:54:03;94393.59;;;24.50;54.41
31337;BME280;22846;42.654;23.314;2023-05-24T04:56:35;94399.03;;;24.50;54.21
31337;BME280;22846;42.654;23.314;2023-05-24T04:59:03;94393.59;;;24.50;54.77
31337;BME280;22846;42.654;23.314;2023-05-24T05:01:28;94401.31;;;24.51;54.67
31337;BME280;22846;42.654;23.314;2023-05-24T05:03:54;94405.91;;;24.54;54.90
31337;BME280;22846;42.654;23.314;2023-05-24T05:06:19;94405.91;;;24.54;54.75
31337;BME280;22846;42.654;23.314;2023-05-24T05:08:45;94396.50;;;24.55;55.02
31337;BME280;22846;42.654;23.314;2023-05-24T05:11:12;94394.53;;;24.56;54.62
31337;BME280;22846;42.654;23.314;2023-05-24T05:13:37;94395.31;;;24.56;54.97
31337;BME280;22846;42.654;23.314;2023-05-24T05:16:03;94403.06;;;24.58;54.75
31337;BME280;22846;42.654;23.314;2023-05-24T05:18:29;94398.38;;;24.58;54.29
31337;BME280;22846;42.654;23.314;2023-05-24T05:20:54;94399.88;;;24.59;54.80
31337;BME280;22846;42.654;23.314;2023-05-24T05:23:20;94402.59;;;24.59;54.64
31337;BME280;22846;42.654;23.314;2023-05-24T05:25:45;94404.13;;;24.60;54.32
31337;BME280;22846;42.654;23.314;2023-05-24T05:28:11;94401.41;;;24.60;54.30
31337;BME280;22846;42.654;23.314;2023-05-24T05:30:36;94407.97;;;24.63;54.71
31337;BME280;22846;42.654;23.314;2023-05-24T05:33:02;94410.69;;;24.63;54.58
31337;BME280;22846;42.654;23.314;2023-05-24T05:35:30;94410.25;;;24.64;54.43
31337;BME280;22846;42.654;23.314;2023-05-24T05:37:55;94410.25;;;24.64;54.36
31337;BME280;22846;42.654;23.314;2023-05-24T05:40:21;94416.03;;;24.66;54.53
31337;BME280;22846;42.654;23.314;2023-05-24T05:42:47;94411.00;;;24.65;54.53
31337;BME280;22846;42.654;23.314;2023-05-24T05:45:13;94411.78;;;24.65;54.40
31337;BME280;22846;42.654;23.314;2023-05-24T05:47:38;94405.84;;;24.67;54.22
31337;BME280;22846;42.654;23.314;2023-05-24T05:50:05;94407.38;;;24.68;53.90
31337;BME280;22846;42.654;23.314;2023-05-24T05:52:30;94408.91;;;24.69;53.78
31337;BME280;22846;42.654;23.314;2023-05-24T05:54:56;94415.91;;;24.70;53.77
31337;BME280;22846;42.654;23.314;2023-05-24T05:57:21;94414.72;;;24.71;53.67
31337;BME280;22846;42.654;23.314;2023-05-24T05:59:49;94419.41;;;24.70;53.75
31337;BME280;22846;42.654;23.314;2023-05-24T06:02:14;94417.00;;;24.72;54.06
31337;BME280;22846;42.654;23.314;2023-05-24T06:04:40;94421.25;;;24.73;53.68
31337;BME280;22846;42.654;23.314;2023-05-24T06:07:05;94427.47;;;24.74;54.01
31337;BME280;22846;42.654;23.314;2023-05-24T06:09:30;94422.78;;;24.74;53.63
31337;BME280;22846;42.654;23.314;2023-05-24T06:11:56;94427.03;;;24.75;53.79
31337;BME280;22846;42.654;23.314;2023-05-24T06:14:21;94431.28;;;24.76;53.76
31337;BME280;22846;42.654;23.314;2023-05-24T06:16:49;94420.34;;;24.76;54.27
31337;BME280;22846;42.654;23.314;2023-05-24T06:19:16;94430.53;;;24.76;54.21
31337;BME280;22846;42.654;23.314;2023-05-24T06:21:43;94424.31;;;24.75;53.66
31337;BME280;22846;42.654;23.314;2023-05-24T06:24:15;94424.84;;;24.70;48.73
31337;BME280;22846;42.654;23.314;2023-05-24T06:26:46;94419.06;;;24.68;47.48
31337;BME280;22846;42.654;23.314;2023-05-24T06:29:12;94425.13;;;24.63;45.00
31337;BME280;22846;42.654;23.314;2023-05-24T06:31:38;94427.19;;;24.59;44.48
31337;BME280;22846;42.654;23.314;2023-05-24T06:34:04;94425.50;;;24.53;44.59
31337;BME280;22846;42.654;23.314;2023-05-24T06:36:29;94421.34;;;24.48;44.33
31337;BME280;22846;42.654;23.314;2023-05-24T06:38:58;94416.44;;;24.43;42.91
31337;BME280;22846;42.654;23.314;2023-05-24T06:41:23;94420.03;;;24.40;43.60
31337;BME280;22846;42.654;23.314;2023-05-24T06:43:48;94415.78;;;24.39;42.83
31337;BME280;22846;42.654;23.314;2023-05-24T06:46:14;94418.94;;;24.38;42.51
31337;BME280;22846;42.654;23.314;2023-05-24T06:48:39;94404.31;;;24.32;42.57
31337;BME280;22846;42.654;23.314;2023-05-24T06:51:05;94412.72;;;24.37;43.63
31337;BME280;22846;42.654;23.314;2023-05-24T06:53:31;94412.25;;;24.39;42.79
31337;BME280;22846;42.654;23.314;2023-05-24T06:55:56;94407.25;;;24.37;43.56
31337;BME280;22846;42.654;23.314;2023-05-24T06:58:22;94410.53;;;24.45;46.70
31337;BME280;22846;42.654;23.314;2023-05-24T07:00:48;94409.31;;;24.46;47.98
31337;BME280;22846;42.654;23.314;2023-05-24T07:03:14;94409.22;;;24.49;48.07
31337;BME280;22846;42.654;23.314;2023-05-24T07:05:40;94415.44;;;24.50;48.54
31337;BME280;22846;42.654;23.314;2023-05-24T07:08:05;94411.38;;;24.54;49.06
31337;BME280;22846;42.654;23.314;2023-05-24T07:10:31;94415.50;;;24.59;49.36
31337;BME280;22846;42.654;23.314;2023-05-24T07:12:56;94406.88;;;24.60;50.01
31337;BME280;22846;42.654;23.314;2023-05-24T07:15:22;94402.19;;;24.61;50.22
31337;BME280;22846;42.654;23.314;2023-05-24T07:17:47;94406.31;;;24.65;50.26
31337;BME280;22846;42.654;23.314;2023-05-24T07:20:13;94409.34;;;24.67;50.84
31337;BME280;22846;42.654;23.314;2023-05-24T07:22:40;94414.06;;;24.67;51.84
31337;BME280;22846;42.654;23.314;2023-05-24T07:25:05;94417.44;;;24.71;52.12
31337;BME280;22846;42.654;23.314;2023-05-24T07:27:31;94411.97;;;24.71;52.58
31337;BME280;22846;42.654;23.314;2023-05-24T07:29:56;94415.34;;;24.75;52.64
31337;BME280;22846;42.654;23.314;2023-05-24T07:32:22;94411.41;;;24.76;52.73
31337;BME280;22846;42.654;23.314;2023-05-24T07:34:48;94426.00;;;24.81;53.30
31337;BME280;22846;42.654;23.314;2023-05-24T07:37:14;94422.97;;;24.79;48.65
31337;BME280;22846;42.654;23.314;2023-05-24T07:39:40;94420.13;;;24.83;52.72
31337;BME280;22846;42.654;23.314;2023-05-24T07:42:06;94421.94;;;24.86;52.78
31337;BME280;22846;42.654;23.314;2023-05-24T07:44:31;94420.72;;;24.87;52.47
31337;BME280;22846;42.654;23.314;2023-05-24T07:46:57;94423.34;;;24.90;52.31
31337;BME280;22846;42.654;23.314;2023-05-24T07:49:22;94431.13;;;24.92;52.59
31337;BME280;22846;42.654;23.314;2023-05-24T07:51:48;94421.69;;;24.93;52.22
31337;BME280;22846;42.654;23.314;2023-05-24T07:54:13;94421.69;;;24.93;51.86
31337;BME280;22846;42.654;23.314;2023-05-24T07:56:40;94404.22;;;24.90;51.68
31337;BME280;22846;42.654;23.314;2023-05-24T07:59:06;94408.47;;;24.91;52.05
31337;BME280;22846;42.654;23.314;2023-05-24T08:01:33;94413.81;;;24.95;51.73
31337;BME280;22846;42.654;23.314;2023-05-24T08:04:02;94418.53;;;24.94;51.90
31337;BME280;22846;42.654;23.314;2023-05-24T08:06:28;94414.59;;;24.95;51.78
31337;BME280;22846;42.654;23.314;2023-05-24T08:08:55;94412.59;;;24.96;51.71
31337;BME280;22846;42.654;23.314;2023-05-24T08:11:20;94413.81;;;24.95;51.65
31337;BME280;22846;42.654;23.314;2023-05-24T08:13:46;94416.13;;;24.96;52.16
31337;BME280;22846;42.654;23.314;2023-05-24T08:16:11;94410.94;;;24.98;51.92
31337;BME280;22846;42.654;23.314;2023-05-24T08:18:37;94409.53;;;24.94;52.33
31337;BME280;22846;42.654;23.314;2023-05-24T08:21:03;94402.75;;;24.98;52.53
31337;BME280;22846;42.654;23.314;2023-05-24T08:23:28;94395.75;;;24.97;52.22
31337;BME280;22846;42.654;23.314;2023-05-24T08:25:56;94399.72;;;24.96;52.49
31337;BME280;22846;42.654;23.314;2023-05-24T08:28:22;94407.00;;;24.99;52.84
31337;BME280;22846;42.654;23.314;2023-05-24T08:30:48;94400.31;;;25.00;52.79
31337;BME280;22846;42.654;23.314;2023-05-24T08:33:13;94404.59;;;25.01;53.00
31337;BME280;22846;42.654;23.314;2023-05-24T08:35:38;94404.91;;;25.03;53.58
31337;BME280;22846;42.654;23.314;2023-05-24T08:38:04;94417.38;;;25.04;53.66
31337;BME280;22846;42.654;23.314;2023-05-24T08:40:30;94409.47;;;25.06;53.22
31337;BME280;22846;42.654;23.314;2023-05-24T08:42:58;94403.25;;;25.06;53.75
31337;BME280;22846;42.654;23.314;2023-05-24T08:45:25;94403.25;;;25.06;53.30
31337;BME280;22846;42.654;23.314;2023-05-24T08:47:50;94398.25;;;25.04;53.55
31337;BME280;22846;42.654;23.314;2023-05-24T08:50:16;94402.03;;;25.07;53.58
31337;BME280;22846;42.654;23.314;2023-05-24T08:52:42;94409.47;;;25.06;53.63
31337;BME280;22846;42.654;23.314;2023-05-24T08:55:10;94403.56;;;25.08;53.54
31337;BME280;22846;42.654;23.314;2023-05-24T08:57:36;94398.09;;;25.08;53.58
31337;BME280;22846;42.654;23.314;2023-05-24T09:00:07;94403.56;;;25.08;53.52
31337;BME280;22846;42.654;23.314;2023-05-24T09:02:37;94401.59;;;25.08;53.42
31337;BME280;22846;42.654;23.314;2023-05-24T09:05:03;94405.09;;;25.09;53.78
31337;BME280;22846;42.654;23.314;2023-05-24T09:07:30;94407.41;;;25.10;53.82
31337;BME280;22846;42.654;23.314;2023-05-24T09:09:58;94401.19;;;25.10;53.77
31337;BME280;22846;42.654;23.314;2023-05-24T09:12:26;94408.59;;;25.09;53.91
31337;BME280;22846;42.654;23.314;2023-05-24T09:14:55;94398.47;;;25.10;53.98
31337;BME280;22846;42.654;23.314;2023-05-24T09:17:21;94398.47;;;25.10;53.96
31337;BME280;22846;42.654;23.314;2023-05-24T09:19:49;94399.22;;;25.10;53.78
31337;BME280;22846;42.654;23.314;2023-05-24T09:22:16;94406.22;;;25.11;53.89
31337;BME280;22846;42.654;23.314;2023-05-24T09:24:48;94400.75;;;25.11;53.83
31337;BME280;22846;42.654;23.314;2023-05-24T09:27:15;94401.47;;;25.12;54.13
31337;BME280;22846;42.654;23.314;2023-05-24T09:29:46;94401.47;;;25.12;53.60
31337;BME280;22846;42.654;23.314;2023-05-24T09:32:18;94396.78;;;25.12;53.57
31337;BME280;22846;42.654;23.314;2023-05-24T09:34:46;94391.44;;;25.09;53.11
31337;BME280;22846;42.654;23.314;2023-05-24T09:37:16;94382.06;;;25.10;53.44
31337;BME280;22846;42.654;23.314;2023-05-24T09:39:43;94393.00;;;25.10;53.32
31337;BME280;22846;42.654;23.314;2023-05-24T09:42:14;94393.59;;;25.14;53.66
31337;BME280;22846;42.654;23.314;2023-05-24T09:44:40;94393.59;;;25.14;53.34
31337;BME280;22846;42.654;23.314;2023-05-24T09:47:06;94389.66;;;25.15;53.49
31337;BME280;22846;42.654;23.314;2023-05-24T09:49:35;94388.91;;;25.14;53.29
31337;BME280;22846;42.654;23.314;2023-05-24T09:52:01;94388.47;;;25.16;53.23
31337;BME280;22846;42.654;23.314;2023-05-24T09:54:27;94393.16;;;25.15;53.42
31337;BME280;22846;42.654;23.314;2023-05-24T09:56:53;94391.19;;;25.16;53.43
31337;BME280;22846;42.654;23.314;2023-05-24T09:59:19;94388.47;;;25.16;53.32
31337;BME280;22846;42.654;23.314;2023-05-24T10:01:44;94372.50;;;25.14;53.56
31337;BME280;22846;42.654;23.314;2023-05-24T10:04:10;94380.25;;;25.16;53.20
31337;BME280;22846;42.654;23.314;2023-05-24T10:06:36;94379.78;;;25.17;53.50
31337;BME280;22846;42.654;23.314;2023-05-24T10:09:03;94379.03;;;25.17;53.69
31337;BME280;22846;42.654;23.314;2023-05-24T10:11:35;94371.59;;;25.17;53.67
31337;BME280;22846;42.654;23.314;2023-05-24T10:14:03;94369.00;;;25.14;53.48
31337;BME280;22846;42.654;23.314;2023-05-24T10:16:29;94375.09;;;25.18;53.54
31337;BME280;22846;42.654;23.314;2023-05-24T10:18:55;94375.84;;;25.18;53.55
31337;BME280;22846;42.654;23.314;2023-05-24T10:21:22;94366.13;;;25.17;53.43
31337;BME280;22846;42.654;23.314;2023-05-24T10:23:50;94375.84;;;25.18;53.63
31337;BME280;22846;42.654;23.314;2023-05-24T10:26:23;94370.38;;;25.18;53.51
31337;BME280;22846;42.654;23.314;2023-05-24T10:28:56;94364.16;;;25.18;53.58
31337;BME280;22846;42.654;23.314;2023-05-24T10:31:31;94364.16;;;25.18;53.41
31337;BME280;22846;42.654;23.314;2023-05-24T10:33:59;94362.94;;;25.19;53.45
31337;BME280;22846;42.654;23.314;2023-05-24T10:36:26;94360.97;;;25.19;53.50
31337;BME280;22846;42.654;23.314;2023-05-24T10:38:53;94355.50;;;25.19;53.68
31337;BME280;22846;42.654;23.314;2023-05-24T10:41:18;94356.25;;;25.20;53.53
31337;BME280;22846;42.654;23.314;2023-05-24T10:43:47;94361.72;;;25.20;53.62
31337;BME280;22846;42.654;23.314;2023-05-24T10:46:14;94354.28;;;25.20;53.27
31337;BME280;22846;42.654;23.314;2023-05-24T10:48:43;94346.84;;;25.21;53.43
31337;BME280;22846;42.654;23.314;2023-05-24T10:51:34;94354.28;;;25.20;53.68
31337;BME280;22846;42.654;23.314;2023-05-24T10:56:46;94339.09;;;25.19;53.69
31337;BME280;22846;42.654;23.314;2023-05-24T10:59:22;94334.38;;;25.20;53.47
31337;BME280;22846;42.654;23.314;2023-05-24T11:01:56;94337.88;;;25.20;53.58
31337;BME280;22846;42.654;23.314;2023-05-24T11:04:22;94340.16;;;25.22;53.63
31337;BME280;22846;42.654;23.314;2023-05-24T11:07:03;94342.16;;;25.21;53.55
31337;BME280;22846;42.654;23.314;2023-05-24T11:09:30;94332.72;;;25.22;53.55
31337;BME280;22846;42.654;23.314;2023-05-24T11:12:02;94332.72;;;25.22;53.69
31337;BME280;22846;42.654;23.314;2023-05-24T11:14:29;94333.47;;;25.23;53.55
31337;BME280;22846;42.654;23.314;2023-05-24T11:16:56;94332.28;;;25.24;53.57
31337;BME280;22846;42.654;23.314;2023-05-24T11:19:28;94333.47;;;25.23;53.51
31337;BME280;22846;42.654;23.314;2023-05-24T11:21:56;94315.56;;;25.22;53.62
31337;BME280;22846;42.654;23.314;2023-05-24T11:24:26;94334.56;;;25.25;53.84
31337;BME280;22846;42.654;23.314;2023-05-24T11:26:52;94328.34;;;25.25;53.71
31337;BME280;22846;42.654;23.314;2023-05-24T11:29:18;94322.88;;;25.25;53.85
31337;BME280;22846;42.654;23.314;2023-05-24T11:31:48;94323.63;;;25.25;53.85
31337;BME280;22846;42.654;23.314;2023-05-24T11:34:13;94326.66;;;25.27;53.65
31337;BME280;22846;42.654;23.314;2023-05-24T11:36:39;94320.44;;;25.27;53.97
31337;BME280;22846;42.654;23.314;2023-05-24T11:39:08;94325.91;;;25.27;54.04
31337;BME280;22846;42.654;23.314;2023-05-24T11:41:37;94320.44;;;25.27;53.89
31337;BME280;22846;42.654;23.314;2023-05-24T11:44:03;94313.44;;;25.26;53.90
31337;BME280;22846;42.654;23.314;2023-05-24T11:46:29;94311.78;;;25.28;53.76
31337;BME280;22846;42.654;23.314;2023-05-24T11:48:56;94318.00;;;25.29;53.74
31337;BME280;22846;42.654;23.314;2023-05-24T11:51:32;94306.31;;;25.28;53.99
31337;BME280;22846;42.654;23.314;2023-05-24T11:53:59;94302.38;;;25.29;53.81
31337;BME280;22846;42.654;23.314;2023-05-24T11:56:25;94301.59;;;25.29;53.87
31337;BME280;22846;42.654;23.314;2023-05-24T11:58:58;94292.19;;;25.30;53.94
31337;BME280;22846;42.654;23.314;2023-05-24T12:01:28;94288.69;;;25.29;53.80
31337;BME280;22846;42.654;23.314;2023-05-24T12:03:53;94297.66;;;25.30;53.93
31337;BME280;22846;42.654;23.314;2023-05-24T12:06:20;94294.47;;;25.31;54.00
31337;BME280;22846;42.654;23.314;2023-05-24T12:08:46;94301.91;;;25.31;53.87
31337;BME280;22846;42.654;23.314;2023-05-24T12:11:13;94292.97;;;25.30;53.64
31337;BME280;22846;42.654;23.314;2023-05-24T12:13:39;94297.22;;;25.31;54.11
31337;BME280;22846;42.654;23.314;2023-05-24T12:16:05;94293.72;;;25.31;53.86
31337;BME280;22846;42.654;23.314;2023-05-24T12:18:31;94292.50;;;25.32;53.95
31337;BME280;22846;42.654;23.314;2023-05-24T12:20:57;94284.75;;;25.30;53.93
31337;BME280;22846;42.654;23.314;2023-05-24T12:23:24;94285.81;;;25.33;53.89
31337;BME280;22846;42.654;23.314;2023-05-24T12:25:59;94284.28;;;25.32;54.04
31337;BME280;22846;42.654;23.314;2023-05-24T12:28:25;94275.63;;;25.33;53.95
31337;BME280;22846;42.654;23.314;2023-05-24T12:30:51;94274.88;;;25.33;54.09
31337;BME280;22846;42.654;23.314;2023-05-24T12:33:18;94281.88;;;25.34;53.63
31337;BME280;22846;42.654;23.314;2023-05-24T12:35:45;94273.66;;;25.34;54.19
31337;BME280;22846;42.654;23.314;2023-05-24T12:38:11;94269.72;;;25.35;53.85
31337;BME280;22846;42.654;23.314;2023-05-24T12:40:40;94268.94;;;25.34;54.18
31337;BME280;22846;42.654;23.314;2023-05-24T12:43:05;94272.44;;;25.35;53.69
31337;BME280;22846;42.654;23.314;2023-05-24T12:45:30;94273.19;;;25.35;53.69
31337;BME280;22846;42.654;23.314;2023-05-24T12:47:58;94272.00;;;25.36;53.77
31337;BME280;22846;42.654;23.314;2023-05-24T12:50:24;94268.50;;;25.36;54.01
31337;BME280;22846;42.654;23.314;2023-05-24T12:52:51;94262.25;;;25.35;54.13
31337;BME280;22846;42.654;23.314;2023-05-24T12:55:27;94265.00;;;25.35;53.89
31337;BME280;22846;42.654;23.314;2023-05-24T12:57:54;94259.06;;;25.37;53.93
31337;BME280;22846;42.654;23.314;2023-05-24T13:00:22;94257.09;;;25.37;54.02
31337;BME280;22846;42.654;23.314;2023-05-24T13:02:48;94251.78;;;25.34;53.88
31337;BME280;22846;42.654;23.314;2023-05-24T13:05:14;94247.84;;;25.35;53.97
31337;BME280;22846;42.654;23.314;2023-05-24T13:07:42;94255.13;;;25.38;54.15